Stites, ID (83552)

6:29 PM PST on February 11, 2016 (GMT -0800)
Kamiah Airport | | Change Station
CLOSE
Current Station
Personal Weather Station
Location: Kamiah, ID
Elevation: 1194 ft
Nearby Weather Stations

Elev 1194 ft 46.22 °N, 116.01 °W | Updated 14 seconds ago

Rain
Rain
46.6 °F
Feels Like 47 °F
N
0.0
Wind Variable Wind from North
Gusts 0.0 mph

Today
High -- | Low -- °F
--% Chance of Precip.
Yesterday
High -- | Low -- °F
Precip. -- in
Pressure 30.25 in
Visibility 10.0 miles
Clouds Scattered Clouds 8500 ft
Mostly Cloudy 11000 ft
Windchill 47 °F
Dew Point 41 °F
Humidity 81%
Rainfall 0.00 in
Snow Depth Not available.
6:53 AM 5:03 PM
Waxing Crescent, 16% visible
METAR KLWS 120156Z 00000KT 10SM -RA SCT085 BKN110 09/04 A3023 RMK AO2 RAB08 SLP242 P0001 T00890044
Pressure 30.25 in
Visibility 10.0 miles
Clouds Scattered Clouds 8500 ft
Mostly Cloudy 11000 ft
Windchill 47 °F
Dew Point 41 °F
Humidity 81%
Rainfall 0.00 in
Snow Depth Not available.
6:53 AM 5:03 PM
Waxing Crescent, 16% visible
METAR KLWS 120156Z 00000KT 10SM -RA SCT085 BKN110 09/04 A3023 RMK AO2 RAB08 SLP242 P0001 T00890044

10-Day Weather Forecast

Almanac

Astronomy

Feb. 11, 2016 Rise Set
Actual Time
Civil Twilight
Nautical Twilight
Astronomical Twilight
Moon
Length of Visible Light
Length of Day
Tomorrow will be .
, % of the Moon is Illuminated

Today's Extremes

State Highs State Lows

Community

WunderPhotos

Upload Photos

1,892,226 photos uploaded!

WunderBlog® & News

Nearby

Air Quality

  Air Quality AQ Index Pollutant
Not available.

Snow Depth

Station Depth Elevation

Earthquake Activity

City Distance Mag. Time & Date
Minimum magnitude displayed is 2.5.

Coastal Water Temperatures

Place Temperature

Stations

Nearby Weather Stations

Station Location Temp. Windchill Dew Point Humidity Wind Precip. Elev Updated Type
                   

Watches & Warnings

There are currently no watches in effect.